Time;durP1;ratioP1;P1;durP2;ratioP2;P2;SDS_P1;SDS_P2;PMS_P1;PMS_P2;Temp;Humidity;BMP_temperature;BMP_pressure;BME280_temperature;BME280_humidity;BME280_pressure;Samples;Min_cycle;Max_cycle;Signal;HPM_P1;HPM_P2
2023/03/01 00:01:02;;;;;;;;;;;6.00;99.90;;;;;;5014439;28;19962;-68
2023/03/01 00:03:27;;;;;;;;;;;6.00;99.90;;;;;;5014106;28;19960;-67
2023/03/01 00:05:53;;;;;;;;;;;6.00;99.90;;;;;;5014082;28;20363;-67
2023/03/01 00:08:19;;;;;;;;;;;6.00;99.90;;;;;;5014314;28;20363;-72
2023/03/01 00:10:44;;;;;;;;;;;6.00;99.90;;;;;;5009283;28;20821;-67
2023/03/01 00:13:10;;;;;;;;;;;6.10;99.90;;;;;;5010678;28;19921;-67
2023/03/01 00:15:40;;;;;;;;;;;6.00;99.90;;;;;;5013454;28;19910;-67
2023/03/01 00:18:06;;;;;;;;;;;6.00;99.90;;;;;;5012827;28;20330;-68
2023/03/01 00:20:31;;;;;;;;;;;6.00;99.90;;;;;;5006887;28;20004;-67
2023/03/01 00:22:57;;;;;;;;;;;6.00;99.90;;;;;;5013055;28;20375;-67
2023/03/01 00:25:23;;;;;;;;;;;6.10;99.90;;;;;;5012008;28;19944;-65
2023/03/01 00:27:49;;;;;;;;;;;6.10;99.90;;;;;;5010549;28;19917;-68
2023/03/01 00:30:14;;;;;;;;;;;6.10;99.90;;;;;;5013139;28;19955;-66
2023/03/01 00:32:40;;;;;;;;;;;6.10;99.90;;;;;;5011940;28;20066;-68
2023/03/01 00:35:06;;;;;;;;;;;6.10;99.90;;;;;;5012666;28;19909;-67
2023/03/01 00:37:32;;;;;;;;;;;6.10;99.90;;;;;;5011860;28;19988;-67
2023/03/01 00:39:57;;;;;;;;;;;6.10;99.90;;;;;;5012731;28;20395;-67
2023/03/01 00:42:23;;;;;;;;;;;6.00;99.90;;;;;;5012837;28;19913;-67
2023/03/01 00:44:49;;;;;;;;;;;6.00;99.90;;;;;;5013053;28;19945;-68
2023/03/01 00:47:14;;;;;;;;;;;6.00;99.90;;;;;;5011567;28;19921;-67
2023/03/01 00:49:40;;;;;;;;;;;6.00;99.90;;;;;;5009261;28;20011;-68
2023/03/01 00:52:06;;;;;;;;;;;6.00;99.90;;;;;;5012642;28;19921;-66
2023/03/01 00:54:31;;;;;;;;;;;6.00;99.90;;;;;;5006082;28;19913;-67
2023/03/01 00:56:57;;;;;;;;;;;6.00;99.90;;;;;;5009827;28;19936;-67
2023/03/01 00:59:23;;;;;;;;;;;6.00;99.90;;;;;;5015948;28;20539;-67
2023/03/01 01:01:49;;;;;;;;;;;6.10;99.90;;;;;;5016149;28;20034;-68
2023/03/01 01:04:14;;;;;;;;;;;6.10;99.90;;;;;;5016335;28;19916;-67
2023/03/01 01:06:42;;;;;;;;;;;6.10;99.90;;;;;;5015834;28;19921;-67
2023/03/01 01:09:08;;;;;;;;;;;6.10;99.90;;;;;;5016174;28;20324;-67
2023/03/01 01:11:36;;;;;;;;;;;6.00;99.90;;;;;;5015013;28;19944;-70
2023/03/01 01:14:02;;;;;;;;;;;6.00;99.90;;;;;;5016259;28;19914;-67
2023/03/01 01:16:28;;;;;;;;;;;6.00;99.90;;;;;;5015470;28;20402;-67
2023/03/01 01:18:55;;;;;;;;;;;6.00;99.90;;;;;;5015607;28;19921;-68
2023/03/01 01:21:22;;;;;;;;;;;6.00;99.90;;;;;;5015680;28;20399;-66
2023/03/01 01:23:48;;;;;;;;;;;6.00;99.90;;;;;;5016143;28;19916;-67
2023/03/01 01:26:15;;;;;;;;;;;6.00;99.90;;;;;;5013286;28;20029;-67
2023/03/01 01:28:41;;;;;;;;;;;6.00;99.90;;;;;;5011740;28;19927;-68
2023/03/01 01:31:07;;;;;;;;;;;6.00;99.90;;;;;;5015639;28;19909;-67
2023/03/01 01:33:33;;;;;;;;;;;6.00;99.90;;;;;;5015709;28;20011;-67
2023/03/01 01:35:58;;;;;;;;;;;6.00;99.90;;;;;;5015851;28;19997;-66
2023/03/01 01:38:24;;;;;;;;;;;5.90;99.90;;;;;;5012555;28;19951;-68
2023/03/01 01:40:50;;;;;;;;;;;5.90;99.90;;;;;;5016027;28;19921;-67
2023/03/01 01:43:19;;;;;;;;;;;5.90;99.90;;;;;;5015482;28;19937;-71
2023/03/01 01:45:44;;;;;;;;;;;5.90;99.90;;;;;;5014503;28;19910;-66
2023/03/01 01:48:16;;;;;;;;;;;6.00;99.90;;;;;;5015331;28;20402;-67
2023/03/01 01:50:44;;;;;;;;;;;6.00;99.90;;;;;;5016569;28;19913;-67
2023/03/01 01:53:12;;;;;;;;;;;6.00;99.90;;;;;;5015462;28;20367;-68
2023/03/01 01:55:43;;;;;;;;;;;6.00;99.90;;;;;;5014959;28;19920;-67
2023/03/01 01:58:10;;;;;;;;;;;6.00;99.90;;;;;;5013024;28;19933;-67
2023/03/01 02:00:36;;;;;;;;;;;6.00;99.90;;;;;;5009881;28;19909;-68
2023/03/01 02:03:08;;;;;;;;;;;6.10;99.90;;;;;;5015655;28;19914;-65
2023/03/01 02:05:52;;;;;;;;;;;6.10;99.90;;;;;;5014125;28;19913;-67
2023/03/01 02:08:19;;;;;;;;;;;6.10;99.90;;;;;;5013198;28;19921;-67
2023/03/01 02:10:45;;;;;;;;;;;6.10;99.90;;;;;;5015394;28;19917;-67
2023/03/01 02:13:11;;;;;;;;;;;6.10;99.90;;;;;;5013362;28;20114;-67
2023/03/01 02:15:38;;;;;;;;;;;6.00;99.90;;;;;;5015399;28;19913;-67
2023/03/01 02:18:04;;;;;;;;;;;6.00;99.90;;;;;;5015075;28;19917;-67
2023/03/01 02:20:35;;;;;;;;;;;6.00;99.90;;;;;;5015195;28;19968;-67
2023/03/01 02:23:01;;;;;;;;;;;6.00;99.90;;;;;;5014300;28;19914;-67
2023/03/01 02:25:49;;;;;;;;;;;6.00;99.90;;;;;;5013451;28;19979;-65
2023/03/01 02:28:17;;;;;;;;;;;6.10;99.90;;;;;;5008659;28;19914;-67
2023/03/01 02:33:32;;;;;;;;;;;6.10;99.90;;;;;;5014479;28;19952;-67
2023/03/01 02:36:01;;;;;;;;;;;6.10;99.90;;;;;;5013635;28;20564;-66
2023/03/01 02:38:27;;;;;;;;;;;6.10;99.90;;;;;;5014204;28;19914;-67
2023/03/01 02:40:54;;;;;;;;;;;6.10;99.90;;;;;;5014611;28;19917;-69
2023/03/01 02:43:22;;;;;;;;;;;6.20;99.90;;;;;;5013260;28;19910;-66
2023/03/01 02:45:49;;;;;;;;;;;6.20;99.90;;;;;;5013079;28;20283;-66
2023/03/01 02:48:15;;;;;;;;;;;6.20;99.90;;;;;;5013755;28;19932;-68
2023/03/01 02:50:49;;;;;;;;;;;6.20;99.90;;;;;;5014325;28;20000;-67
2023/03/01 02:53:19;;;;;;;;;;;6.20;99.90;;;;;;5012979;28;20056;-68
2023/03/01 02:55:45;;;;;;;;;;;6.20;99.90;;;;;;5013301;28;19953;-66
2023/03/01 02:58:11;;;;;;;;;;;6.20;99.90;;;;;;5012491;28;19947;-68
2023/03/01 03:00:39;;;;;;;;;;;6.20;99.90;;;;;;5009694;28;19910;-66
2023/03/01 03:03:05;;;;;;;;;;;6.30;99.90;;;;;;5011620;28;19921;-66
2023/03/01 03:05:31;;;;;;;;;;;6.20;99.90;;;;;;5010127;28;19925;-67
2023/03/01 03:07:58;;;;;;;;;;;6.30;99.90;;;;;;5013669;28;19909;-67
2023/03/01 03:10:25;;;;;;;;;;;6.30;99.90;;;;;;5014229;28;20005;-67
2023/03/01 03:12:55;;;;;;;;;;;6.20;99.90;;;;;;5009884;28;19914;-68
2023/03/01 03:15:22;;;;;;;;;;;6.30;99.90;;;;;;5012346;28;19917;-68
2023/03/01 03:17:49;;;;;;;;;;;6.30;99.90;;;;;;5013769;28;19952;-67
2023/03/01 03:20:18;;;;;;;;;;;6.30;99.90;;;;;;5013420;28;20371;-67
2023/03/01 03:22:44;;;;;;;;;;;6.30;99.90;;;;;;5012709;28;20037;-67
2023/03/01 03:25:10;;;;;;;;;;;6.30;99.90;;;;;;5013546;28;19941;-66
2023/03/01 03:27:37;;;;;;;;;;;6.30;99.90;;;;;;5009266;28;19937;-69
2023/03/01 03:30:08;;;;;;;;;;;6.30;99.90;;;;;;5007564;28;19914;-68
2023/03/01 03:32:37;;;;;;;;;;;6.40;99.90;;;;;;5013795;28;19913;-67
2023/03/01 03:35:09;;;;;;;;;;;6.40;99.90;;;;;;5014209;28;19909;-66
2023/03/01 03:40:25;;;;;;;;;;;6.40;99.90;;;;;;5011748;28;20349;-65
2023/03/01 03:42:51;;;;;;;;;;;6.40;99.90;;;;;;5013275;28;20383;-67
2023/03/01 03:45:17;;;;;;;;;;;6.40;99.90;;;;;;5013849;28;19909;-65
2023/03/01 03:47:43;;;;;;;;;;;6.40;99.90;;;;;;5012213;28;19927;-67
2023/03/01 03:50:09;;;;;;;;;;;6.40;99.90;;;;;;5007220;28;20008;-67
2023/03/01 03:52:35;;;;;;;;;;;6.40;99.90;;;;;;5005518;28;20291;-68
2023/03/01 03:55:01;;;;;;;;;;;6.40;99.90;;;;;;5013666;28;20446;-67
2023/03/01 03:57:26;;;;;;;;;;;6.40;99.90;;;;;;5011832;28;19914;-67
2023/03/01 03:59:52;;;;;;;;;;;6.40;99.90;;;;;;5011768;28;19913;-66
2023/03/01 04:02:21;;;;;;;;;;;6.40;99.90;;;;;;5003159;28;19920;-66
2023/03/01 04:04:49;;;;;;;;;;;6.40;99.90;;;;;;5014093;28;19910;-67
2023/03/01 04:07:15;;;;;;;;;;;6.40;99.90;;;;;;5012713;28;19996;-67
2023/03/01 04:09:42;;;;;;;;;;;6.40;99.90;;;;;;5010425;28;19997;-68
2023/03/01 04:12:08;;;;;;;;;;;6.40;99.90;;;;;;5013018;28;20399;-67
2023/03/01 04:14:34;;;;;;;;;;;6.40;99.90;;;;;;5013193;28;19916;-67
2023/03/01 04:16:59;;;;;;;;;;;6.40;99.90;;;;;;5012858;28;19909;-66
2023/03/01 04:19:26;;;;;;;;;;;6.40;99.90;;;;;;5012534;28;20044;-67
2023/03/01 04:21:52;;;;;;;;;;;6.40;99.90;;;;;;5013159;28;19914;-66
2023/03/01 04:24:18;;;;;;;;;;;6.40;99.90;;;;;;5012731;28;19963;-68
2023/03/01 04:26:44;;;;;;;;;;;6.40;99.90;;;;;;5011361;28;20390;-66
2023/03/01 04:29:10;;;;;;;;;;;6.40;99.90;;;;;;5013041;28;20461;-67
2023/03/01 04:31:36;;;;;;;;;;;6.40;99.90;;;;;;5008984;28;19929;-67
2023/03/01 04:34:02;;;;;;;;;;;6.40;99.90;;;;;;5017024;28;20572;-67
2023/03/01 04:36:28;;;;;;;;;;;6.40;99.90;;;;;;5016137;28;20036;-68
2023/03/01 04:38:55;;;;;;;;;;;6.40;99.90;;;;;;5017730;28;20261;-67
2023/03/01 04:41:21;;;;;;;;;;;6.40;99.90;;;;;;5016497;28;19918;-67
2023/03/01 04:43:48;;;;;;;;;;;6.50;99.90;;;;;;5016981;28;19910;-67
2023/03/01 04:46:15;;;;;;;;;;;6.50;99.90;;;;;;5014674;28;19920;-68
2023/03/01 04:48:41;;;;;;;;;;;6.50;99.90;;;;;;5016822;28;19910;-66
2023/03/01 04:51:08;;;;;;;;;;;6.50;99.90;;;;;;5017194;28;19952;-68
2023/03/01 04:53:36;;;;;;;;;;;6.50;99.90;;;;;;5016448;28;19964;-69
2023/03/01 04:56:02;;;;;;;;;;;6.50;99.90;;;;;;5014971;28;20008;-69
2023/03/01 04:58:28;;;;;;;;;;;6.50;99.90;;;;;;5013407;28;20064;-66
2023/03/01 05:00:54;;;;;;;;;;;6.40;99.90;;;;;;5016436;28;19921;-68
2023/03/01 05:03:20;;;;;;;;;;;6.40;99.90;;;;;;5016847;28;19953;-68
2023/03/01 05:05:47;;;;;;;;;;;6.40;99.90;;;;;;5016570;28;19946;-67
2023/03/01 05:08:17;;;;;;;;;;;6.40;99.90;;;;;;5015564;28;19914;-67
2023/03/01 05:10:48;;;;;;;;;;;6.40;99.90;;;;;;5016662;28;20660;-67
2023/03/01 05:13:20;;;;;;;;;;;6.30;99.90;;;;;;5015613;28;20449;-68
2023/03/01 05:15:56;;;;;;;;;;;6.30;99.90;;;;;;5016190;28;19917;-68
2023/03/01 05:18:25;;;;;;;;;;;6.30;99.90;;;;;;5011543;28;20277;-67
2023/03/01 05:20:51;;;;;;;;;;;6.40;99.90;;;;;;5016308;28;20169;-68
2023/03/01 05:23:18;;;;;;;;;;;6.30;99.90;;;;;;5015945;28;19913;-67
2023/03/01 05:25:44;;;;;;;;;;;6.30;99.90;;;;;;5015921;28;19916;-67
2023/03/01 05:28:13;;;;;;;;;;;6.30;99.90;;;;;;5011734;28;19952;-66
2023/03/01 05:30:39;;;;;;;;;;;6.30;99.90;;;;;;5016455;28;19910;-68
2023/03/01 05:33:10;;;;;;;;;;;6.30;99.90;;;;;;5016169;28;19964;-68
2023/03/01 05:35:35;;;;;;;;;;;6.30;99.90;;;;;;5016582;28;20319;-66
2023/03/01 05:38:01;;;;;;;;;;;6.30;99.90;;;;;;5010470;28;19917;-67
2023/03/01 05:40:27;;;;;;;;;;;6.30;99.90;;;;;;5013446;28;19929;-66
2023/03/01 05:42:54;;;;;;;;;;;6.20;99.90;;;;;;5015360;28;20332;-67
2023/03/01 05:45:20;;;;;;;;;;;6.20;99.90;;;;;;5014263;28;20383;-68
2023/03/01 05:47:47;;;;;;;;;;;6.30;99.90;;;;;;5013262;28;19920;-68
2023/03/01 05:50:14;;;;;;;;;;;6.20;99.90;;;;;;5015408;28;19913;-67
2023/03/01 05:52:40;;;;;;;;;;;6.20;99.90;;;;;;5015384;28;19910;-67
2023/03/01 05:55:05;;;;;;;;;;;6.20;99.90;;;;;;5015903;28;19909;-67
2023/03/01 05:57:31;;;;;;;;;;;6.20;99.90;;;;;;5012234;28;19977;-68
2023/03/01 05:59:57;;;;;;;;;;;6.20;99.90;;;;;;5014461;28;20013;-68
2023/03/01 06:02:23;;;;;;;;;;;6.20;99.90;;;;;;5015101;28;20036;-67
2023/03/01 06:04:48;;;;;;;;;;;6.20;99.90;;;;;;5013909;28;19913;-67
2023/03/01 06:07:14;;;;;;;;;;;6.20;99.90;;;;;;5014216;28;19913;-67
2023/03/01 06:09:40;;;;;;;;;;;6.20;99.90;;;;;;5015289;28;19909;-68
2023/03/01 06:12:05;;;;;;;;;;;6.20;99.90;;;;;;5015194;28;20000;-67
2023/03/01 06:14:31;;;;;;;;;;;6.20;99.90;;;;;;5015521;28;19936;-67
2023/03/01 06:16:57;;;;;;;;;;;6.30;99.90;;;;;;5014535;28;19974;-65
2023/03/01 06:19:23;;;;;;;;;;;6.30;99.90;;;;;;5014923;28;19954;-68
2023/03/01 06:21:49;;;;;;;;;;;6.30;99.90;;;;;;5014114;28;19913;-68
2023/03/01 06:24:14;;;;;;;;;;;6.30;99.90;;;;;;5014665;28;19936;-67
2023/03/01 06:26:40;;;;;;;;;;;6.40;99.90;;;;;;5013475;28;19972;-68
2023/03/01 06:29:06;;;;;;;;;;;6.40;99.90;;;;;;5011397;28;19972;-68
2023/03/01 06:31:31;;;;;;;;;;;6.40;99.90;;;;;;5014525;28;19960;-68
2023/03/01 06:33:57;;;;;;;;;;;6.50;99.90;;;;;;5014581;28;19913;-67
2023/03/01 06:36:23;;;;;;;;;;;6.50;99.90;;;;;;5013638;28;19909;-68
2023/03/01 06:38:48;;;;;;;;;;;6.50;99.90;;;;;;5013933;28;19918;-67
2023/03/01 06:41:14;;;;;;;;;;;6.50;99.90;;;;;;5014849;28;20017;-68
2023/03/01 06:43:40;;;;;;;;;;;6.50;99.90;;;;;;5009051;28;20283;-67
2023/03/01 06:46:06;;;;;;;;;;;6.50;99.90;;;;;;5014601;28;19948;-66
2023/03/01 06:48:33;;;;;;;;;;;6.40;99.90;;;;;;5013880;28;20410;-67
2023/03/01 06:51:00;;;;;;;;;;;6.50;99.90;;;;;;5014496;28;19932;-66
2023/03/01 06:53:26;;;;;;;;;;;6.50;99.90;;;;;;5013753;28;20403;-67
2023/03/01 06:56:00;;;;;;;;;;;6.50;99.90;;;;;;5013714;28;20279;-67
2023/03/01 06:58:26;;;;;;;;;;;6.60;99.90;;;;;;5011982;28;20295;-66
2023/03/01 07:00:51;;;;;;;;;;;6.60;99.90;;;;;;5011805;28;20052;-67
2023/03/01 07:03:17;;;;;;;;;;;6.60;99.90;;;;;;5014091;28;19945;-68
2023/03/01 07:05:44;;;;;;;;;;;6.60;99.90;;;;;;5014482;28;19917;-68
2023/03/01 07:08:10;;;;;;;;;;;6.60;99.90;;;;;;5008608;28;19960;-67
2023/03/01 07:10:35;;;;;;;;;;;6.60;99.90;;;;;;5012895;28;19918;-67
2023/03/01 07:13:01;;;;;;;;;;;6.60;99.90;;;;;;5013527;28;19918;-66
2023/03/01 07:15:27;;;;;;;;;;;6.50;99.90;;;;;;5013749;28;19948;-66
2023/03/01 07:17:53;;;;;;;;;;;6.60;99.90;;;;;;5013309;28;20001;-71
2023/03/01 07:20:24;;;;;;;;;;;6.60;99.90;;;;;;5013685;28;20012;-67
2023/03/01 07:22:50;;;;;;;;;;;6.70;99.90;;;;;;5007592;28;19920;-67
2023/03/01 07:25:15;;;;;;;;;;;6.70;99.90;;;;;;5013641;28;19933;-67
2023/03/01 07:27:41;;;;;;;;;;;6.70;99.90;;;;;;5012219;28;20012;-67
2023/03/01 07:30:07;;;;;;;;;;;6.80;99.90;;;;;;5011704;28;19920;-67
2023/03/01 07:32:33;;;;;;;;;;;6.80;99.90;;;;;;5013110;28;19955;-67
2023/03/01 07:34:59;;;;;;;;;;;6.80;99.90;;;;;;5013145;28;20016;-68
2023/03/01 07:37:24;;;;;;;;;;;6.90;99.90;;;;;;5013676;28;20014;-68
2023/03/01 07:39:50;;;;;;;;;;;6.90;99.90;;;;;;5013135;28;19918;-67
2023/03/01 07:42:16;;;;;;;;;;;6.90;99.90;;;;;;5013219;28;19913;-67
2023/03/01 07:44:41;;;;;;;;;;;7.00;99.90;;;;;;5013284;28;19913;-66
2023/03/01 07:47:07;;;;;;;;;;;7.00;99.90;;;;;;5011441;28;19969;-67
2023/03/01 07:49:33;;;;;;;;;;;7.00;99.90;;;;;;5011263;28;19963;-67
2023/03/01 07:51:58;;;;;;;;;;;6.90;99.90;;;;;;5013338;28;19941;-68
2023/03/01 07:54:26;;;;;;;;;;;6.90;99.90;;;;;;5011976;28;19909;-67
2023/03/01 07:56:51;;;;;;;;;;;6.80;99.90;;;;;;5013543;28;19913;-66
2023/03/01 07:59:17;;;;;;;;;;;6.70;99.90;;;;;;5011414;28;20395;-65
2023/03/01 08:01:43;;;;;;;;;;;6.70;99.90;;;;;;5011719;28;19962;-67
2023/03/01 08:04:08;;;;;;;;;;;6.60;99.90;;;;;;5012881;28;19910;-71
2023/03/01 08:06:35;;;;;;;;;;;6.60;99.90;;;;;;5013078;28;19910;-66
2023/03/01 08:09:01;;;;;;;;;;;6.60;99.90;;;;;;5012224;28;20309;-67
2023/03/01 08:11:30;;;;;;;;;;;6.70;99.90;;;;;;5013155;28;19917;-66
2023/03/01 08:13:56;;;;;;;;;;;6.70;99.90;;;;;;5012754;28;19921;-67
2023/03/01 08:16:22;;;;;;;;;;;6.70;99.90;;;;;;5012350;28;19940;-67
2023/03/01 08:18:47;;;;;;;;;;;6.70;99.90;;;;;;5013487;28;20375;-67
2023/03/01 08:21:14;;;;;;;;;;;6.70;99.90;;;;;;5012609;28;20000;-65
2023/03/01 08:23:40;;;;;;;;;;;6.80;99.90;;;;;;5013695;28;19910;-68
2023/03/01 08:26:13;;;;;;;;;;;6.90;99.90;;;;;;5013795;28;20314;-66
2023/03/01 08:28:39;;;;;;;;;;;6.90;99.90;;;;;;5010612;28;19918;-66
2023/03/01 08:31:17;;;;;;;;;;;7.00;99.90;;;;;;5011205;28;20430;-67
2023/03/01 08:33:42;;;;;;;;;;;7.00;99.90;;;;;;5012263;28;20008;-67
2023/03/01 08:36:08;;;;;;;;;;;7.00;99.90;;;;;;5013171;28;19960;-67
2023/03/01 08:38:34;;;;;;;;;;;7.00;99.90;;;;;;5013341;28;19913;-67
2023/03/01 08:41:00;;;;;;;;;;;6.90;99.90;;;;;;5012941;28;19918;-66
2023/03/01 08:43:26;;;;;;;;;;;6.90;99.90;;;;;;5011527;28;19928;-70
2023/03/01 08:45:52;;;;;;;;;;;6.90;99.90;;;;;;5012616;28;19909;-68
2023/03/01 08:48:18;;;;;;;;;;;6.80;99.90;;;;;;5013174;28;19916;-67
2023/03/01 08:50:43;;;;;;;;;;;6.80;99.90;;;;;;5009599;28;19920;-66
2023/03/01 08:53:09;;;;;;;;;;;6.80;99.90;;;;;;5009065;28;20012;-62
2023/03/01 08:55:34;;;;;;;;;;;6.80;99.90;;;;;;5005066;28;20391;-66
2023/03/01 08:58:00;;;;;;;;;;;7.20;99.90;;;;;;5006531;28;19996;-68
2023/03/01 09:00:26;;;;;;;;;;;7.50;99.90;;;;;;5004006;28;19928;-68
2023/03/01 09:02:51;;;;;;;;;;;7.70;99.90;;;;;;5003222;28;19961;-67
2023/03/01 09:05:17;;;;;;;;;;;7.60;99.90;;;;;;5006166;28;19917;-68
2023/03/01 09:07:43;;;;;;;;;;;7.70;99.90;;;;;;5003719;28;19928;-68
2023/03/01 09:10:09;;;;;;;;;;;7.50;99.90;;;;;;5012116;28;20033;-68
2023/03/01 09:12:34;;;;;;;;;;;7.40;99.90;;;;;;5010722;28;19989;-68
2023/03/01 09:15:00;;;;;;;;;;;7.30;99.90;;;;;;5011284;28;19952;-67
2023/03/01 09:17:26;;;;;;;;;;;7.30;99.90;;;;;;5010991;28;19914;-69
2023/03/01 09:19:51;;;;;;;;;;;7.30;99.90;;;;;;5015222;28;19914;-67
2023/03/01 09:22:20;;;;;;;;;;;7.20;99.90;;;;;;5014883;28;19917;-68
2023/03/01 09:24:46;;;;;;;;;;;7.20;99.90;;;;;;5014521;28;19910;-68
2023/03/01 09:27:12;;;;;;;;;;;7.30;99.90;;;;;;5013489;28;20052;-68
2023/03/01 09:29:39;;;;;;;;;;;7.30;99.90;;;;;;5012756;28;19910;-67
2023/03/01 09:32:06;;;;;;;;;;;7.40;99.90;;;;;;5014274;28;19975;-68
2023/03/01 09:35:00;;;;;;;;;;;7.50;99.90;;;;;;5009936;28;19923;-69
2023/03/01 09:37:17;;;;;;;;;;;7.50;99.90;;;;;;5014798;28;20355;-68
2023/03/01 09:39:43;;;;;;;;;;;7.50;99.90;;;;;;5010941;28;19924;-69
2023/03/01 09:42:11;;;;;;;;;;;7.50;99.90;;;;;;5013449;28;19924;-69
2023/03/01 09:44:43;;;;;;;;;;;7.50;99.90;;;;;;5011194;28;20351;-67
2023/03/01 09:47:15;;;;;;;;;;;7.60;99.90;;;;;;5023587;28;19914;-68
2023/03/01 09:49:41;;;;;;;;;;;7.60;99.90;;;;;;5012095;28;19918;-69
2023/03/01 09:52:07;;;;;;;;;;;7.60;99.90;;;;;;5015076;28;19917;-68
2023/03/01 09:54:32;;;;;;;;;;;7.60;99.90;;;;;;5011734;28;20039;-69
2023/03/01 09:57:06;;;;;;;;;;;7.60;99.90;;;;;;5014775;28;19914;-69
2023/03/01 09:59:44;;;;;;;;;;;7.60;99.90;;;;;;5014717;28;19914;-69
2023/03/01 10:02:19;;;;;;;;;;;7.60;99.90;;;;;;5013565;28;19917;-69
2023/03/01 10:04:46;;;;;;;;;;;7.60;99.90;;;;;;5008692;28;20352;-69
2023/03/01 10:07:21;;;;;;;;;;;7.50;99.90;;;;;;5017219;28;19960;-68
2023/03/01 10:09:48;;;;;;;;;;;7.50;99.90;;;;;;5015470;28;20367;-69
2023/03/01 10:12:16;;;;;;;;;;;7.50;99.90;;;;;;5014668;28;20256;-69
2023/03/01 10:15:00;;;;;;;;;;;7.60;99.90;;;;;;5015300;28;19913;-69
2023/03/01 10:17:38;;;;;;;;;;;7.60;99.90;;;;;;5015053;28;19999;-68
2023/03/01 10:20:18;;;;;;;;;;;7.70;99.90;;;;;;5014078;28;19997;-68
2023/03/01 10:22:50;;;;;;;;;;;7.70;99.90;;;;;;5012917;28;19914;-69
2023/03/01 10:25:19;;;;;;;;;;;7.70;99.90;;;;;;5011867;28;19913;-69
2023/03/01 10:27:59;;;;;;;;;;;7.80;99.90;;;;;;5014076;28;19910;-69
2023/03/01 10:30:32;;;;;;;;;;;7.90;99.90;;;;;;5025662;28;20442;-69
2023/03/01 10:32:58;;;;;;;;;;;7.90;99.90;;;;;;5014313;28;20390;-69
2023/03/01 10:35:25;;;;;;;;;;;7.90;99.90;;;;;;5012430;28;19913;-70
2023/03/01 10:38:03;;;;;;;;;;;7.90;99.90;;;;;;5013924;28;19945;-69
2023/03/01 10:40:28;;;;;;;;;;;7.80;99.90;;;;;;5014646;28;20510;-69
2023/03/01 10:42:57;;;;;;;;;;;7.80;99.90;;;;;;5013688;28;19953;-69
2023/03/01 10:45:29;;;;;;;;;;;7.80;99.90;;;;;;5012333;28;19968;-69
2023/03/01 10:48:13;;;;;;;;;;;7.70;99.90;;;;;;5013067;28;19909;-69
2023/03/01 10:50:40;;;;;;;;;;;7.70;99.90;;;;;;5013655;28;19933;-68
2023/03/01 10:53:28;;;;;;;;;;;7.70;99.90;;;;;;5014269;28;19917;-69
2023/03/01 10:56:01;;;;;;;;;;;7.70;99.90;;;;;;5006994;28;19909;-69
2023/03/01 10:58:27;;;;;;;;;;;7.70;99.90;;;;;;5014029;28;19910;-70
2023/03/01 11:00:57;;;;;;;;;;;7.70;99.90;;;;;;5011997;28;20268;-68
2023/03/01 11:03:28;;;;;;;;;;;7.70;99.90;;;;;;5013312;28;19909;-69
2023/03/01 11:05:53;;;;;;;;;;;7.70;99.90;;;;;;5012365;28;19935;-68
2023/03/01 11:08:48;;;;;;;;;;;7.80;99.90;;;;;;4994364;28;19968;-69
2023/03/01 11:11:31;;;;;;;;;;;7.80;99.90;;;;;;4997175;28;19964;-70
2023/03/01 11:13:58;;;;;;;;;;;7.80;99.90;;;;;;4993962;28;19949;-68
2023/03/01 11:16:28;;;;;;;;;;;7.80;99.90;;;;;;4993846;28;19930;-68
2023/03/01 11:19:04;;;;;;;;;;;7.80;99.90;;;;;;5005245;28;19913;-70
2023/03/01 11:21:32;;;;;;;;;;;7.80;99.90;;;;;;5012653;28;19918;-69
2023/03/01 11:23:59;;;;;;;;;;;7.90;99.90;;;;;;5012926;28;19937;-70
2023/03/01 11:26:27;;;;;;;;;;;7.90;99.90;;;;;;5012459;28;19916;-69
2023/03/01 11:28:55;;;;;;;;;;;7.90;99.90;;;;;;5012731;28;19972;-69
2023/03/01 11:31:21;;;;;;;;;;;8.00;99.90;;;;;;5012180;28;19910;-69
2023/03/01 11:34:03;;;;;;;;;;;7.90;99.90;;;;;;5012014;28;19976;-69
2023/03/01 11:36:34;;;;;;;;;;;7.90;99.90;;;;;;5013109;28;19910;-68
2023/03/01 11:39:11;;;;;;;;;;;7.80;99.90;;;;;;5012138;28;19909;-69
2023/03/01 11:41:39;;;;;;;;;;;7.90;99.90;;;;;;5012945;28;20000;-69
2023/03/01 11:44:11;;;;;;;;;;;7.90;99.90;;;;;;5012938;28;19971;-68
2023/03/01 11:46:49;;;;;;;;;;;7.80;99.90;;;;;;5011439;28;20576;-69
2023/03/01 11:49:14;;;;;;;;;;;7.90;99.90;;;;;;5012258;28;19916;-68
2023/03/01 11:51:46;;;;;;;;;;;7.80;99.90;;;;;;5013390;28;20125;-70
2023/03/01 11:54:27;;;;;;;;;;;7.70;99.90;;;;;;5013644;28;19920;-70
2023/03/01 11:57:12;;;;;;;;;;;7.70;99.90;;;;;;5012143;28;19967;-68
2023/03/01 11:59:57;;;;;;;;;;;7.70;99.90;;;;;;5012537;28;19913;-69
2023/03/01 12:02:34;;;;;;;;;;;7.70;99.90;;;;;;5009483;28;19913;-69
2023/03/01 12:05:19;;;;;;;;;;;7.70;99.90;;;;;;5012416;28;19960;-69
2023/03/01 12:07:59;;;;;;;;;;;7.70;99.90;;;;;;5012968;28;19941;-69
2023/03/01 12:10:28;;;;;;;;;;;7.70;99.90;;;;;;5012551;28;19910;-69
2023/03/01 12:13:12;;;;;;;;;;;7.80;99.90;;;;;;5011774;28;19909;-68
2023/03/01 12:15:44;;;;;;;;;;;7.80;99.90;;;;;;5012174;28;19920;-68
2023/03/01 12:18:28;;;;;;;;;;;7.80;99.90;;;;;;5012652;28;20101;-68
2023/03/01 12:21:06;;;;;;;;;;;7.80;99.90;;;;;;5012902;28;19909;-68
2023/03/01 12:23:48;;;;;;;;;;;7.80;99.90;;;;;;5012684;28;19917;-69
2023/03/01 12:26:27;;;;;;;;;;;7.70;99.90;;;;;;5012412;28;19913;-69
2023/03/01 12:28:55;;;;;;;;;;;7.80;99.90;;;;;;5011605;28;19925;-68
2023/03/01 12:31:40;;;;;;;;;;;7.80;99.90;;;;;;5012864;28;19913;-69
2023/03/01 12:34:08;;;;;;;;;;;7.70;99.90;;;;;;5010056;28;19916;-69
2023/03/01 12:36:52;;;;;;;;;;;7.60;99.90;;;;;;5002579;28;19953;-69
2023/03/01 12:39:27;;;;;;;;;;;7.60;99.90;;;;;;5009219;28;19925;-69
2023/03/01 12:42:01;;;;;;;;;;;7.60;99.90;;;;;;5010494;28;20048;-70
2023/03/01 12:44:27;;;;;;;;;;;7.60;99.90;;;;;;5009930;28;19922;-70
2023/03/01 12:47:31;;;;;;;;;;;7.60;99.90;;;;;;5009900;28;19941;-69
2023/03/01 12:50:05;;;;;;;;;;;7.60;99.90;;;;;;4970655;28;19998;-69
2023/03/01 12:52:42;;;;;;;;;;;7.60;99.90;;;;;;4971159;28;19910;-69
2023/03/01 12:55:15;;;;;;;;;;;7.70;99.90;;;;;;4987705;28;19910;-70
2023/03/01 12:57:45;;;;;;;;;;;7.60;99.90;;;;;;5006523;28;19936;-70
2023/03/01 13:00:20;;;;;;;;;;;7.70;99.90;;;;;;5009760;28;19948;-69
2023/03/01 13:02:54;;;;;;;;;;;7.70;99.90;;;;;;5009176;28;19975;-69
2023/03/01 13:05:20;;;;;;;;;;;7.70;99.90;;;;;;5010210;28;19914;-69
2023/03/01 13:07:48;;;;;;;;;;;7.70;99.90;;;;;;5001995;28;20523;-69
2023/03/01 13:10:18;;;;;;;;;;;7.70;99.90;;;;;;5017300;28;19914;-70
2023/03/01 13:12:51;;;;;;;;;;;7.70;99.90;;;;;;5002572;28;19918;-69
2023/03/01 13:15:23;;;;;;;;;;;7.70;99.90;;;;;;5007345;28;20285;-69
2023/03/01 13:18:15;;;;;;;;;;;7.60;99.90;;;;;;5011097;28;20502;-70
2023/03/01 13:20:43;;;;;;;;;;;7.70;99.90;;;;;;5005744;28;19924;-70
2023/03/01 13:23:24;;;;;;;;;;;7.60;99.90;;;;;;5015909;28;19977;-69
2023/03/01 13:26:12;;;;;;;;;;;7.70;99.90;;;;;;5014288;28;19960;-69
2023/03/01 13:28:44;;;;;;;;;;;7.70;99.90;;;;;;5008673;28;20414;-69
2023/03/01 13:31:30;;;;;;;;;;;7.60;99.90;;;;;;5010264;28;20003;-67
2023/03/01 13:33:56;;;;;;;;;;;7.60;99.90;;;;;;5011339;28;19941;-70
2023/03/01 13:36:27;;;;;;;;;;;7.50;99.90;;;;;;5012491;28;20142;-67
2023/03/01 13:38:53;;;;;;;;;;;7.50;99.90;;;;;;5014084;28;19961;-70
2023/03/01 13:41:39;;;;;;;;;;;7.40;99.90;;;;;;5011940;28;19983;-69
2023/03/01 13:44:20;;;;;;;;;;;7.30;99.90;;;;;;5001715;28;19948;-69
2023/03/01 13:46:46;;;;;;;;;;;7.20;99.90;;;;;;5008332;28;19921;-68
2023/03/01 13:49:14;;;;;;;;;;;7.30;99.90;;;;;;5013868;28;20036;-68
2023/03/01 13:51:40;;;;;;;;;;;7.30;99.90;;;;;;5012625;28;20422;-66
2023/03/01 13:54:11;;;;;;;;;;;7.20;99.90;;;;;;5007937;28;20004;-66
2023/03/01 13:56:37;;;;;;;;;;;7.30;99.90;;;;;;5004376;28;19918;-67
2023/03/01 13:59:05;;;;;;;;;;;7.30;99.90;;;;;;5001639;28;20377;-69
2023/03/01 14:01:32;;;;;;;;;;;7.30;99.90;;;;;;5007505;28;19922;-69
2023/03/01 14:03:57;;;;;;;;;;;7.40;99.90;;;;;;5010304;28;19914;-70
2023/03/01 14:06:27;;;;;;;;;;;7.30;99.90;;;;;;5007246;28;19928;-72
2023/03/01 14:09:02;;;;;;;;;;;7.40;99.90;;;;;;5008612;28;20423;-70
2023/03/01 14:11:46;;;;;;;;;;;7.40;99.90;;;;;;5013108;28;19909;-69
2023/03/01 14:14:15;;;;;;;;;;;7.40;99.90;;;;;;5012875;28;19976;-69
2023/03/01 14:16:43;;;;;;;;;;;7.40;99.90;;;;;;5013437;28;19909;-70
2023/03/01 14:19:24;;;;;;;;;;;7.40;99.90;;;;;;5009048;28;19952;-69
2023/03/01 14:21:58;;;;;;;;;;;7.40;99.90;;;;;;5012964;28;19989;-70
2023/03/01 14:24:23;;;;;;;;;;;7.40;99.90;;;;;;5008086;28;19936;-69
2023/03/01 14:26:49;;;;;;;;;;;7.40;99.90;;;;;;5012023;28;20372;-69
2023/03/01 14:29:25;;;;;;;;;;;7.40;99.90;;;;;;5013460;28;19964;-66
2023/03/01 14:31:50;;;;;;;;;;;7.30;99.90;;;;;;5011430;28;20335;-68
2023/03/01 14:34:21;;;;;;;;;;;7.20;99.90;;;;;;5012207;28;19910;-68
2023/03/01 14:36:47;;;;;;;;;;;7.10;99.90;;;;;;5009650;28;19920;-71
2023/03/01 14:39:19;;;;;;;;;;;7.10;99.90;;;;;;5012462;28;20012;-69
2023/03/01 14:41:45;;;;;;;;;;;7.10;99.90;;;;;;5011761;28;20276;-69
2023/03/01 14:44:22;;;;;;;;;;;7.00;99.90;;;;;;5012596;28;19929;-62
2023/03/01 14:46:51;;;;;;;;;;;7.00;99.90;;;;;;5010666;28;19921;-69